Terminal Aerodrome Forecast
Issued by NWS Twin Cities, MN

Home | Current Version | Previous Version | Text Only | Print | Product List | Glossary Off
Versions: 1 2 3 4 5 6 7 8 9 10 11 12 13 14 15 16 17 18 19 20 21 22 23 24 25

291
FTUS43 KMPX 060402 AAA
TAFMSP
TAF AMD
KMSP 060402Z 0604/0706 18012G20KT P6SM OVC020
     FM060800 23011KT P6SM OVC030
     FM061500 24014G24KT P6SM OVC030
     FM061800 25018G30KT P6SM VCSH OVC025 PROB30 0619/0624 3SM -SHSN
     FM070200 26016G25KT P6SM OVC035=

USA.gov is the U.S. government's official web portal to all federal, state and local government web resources and services.